createdAt,value
2023-05-22T00:02:11.361Z,0.40
2023-05-22T00:04:38.125Z,0.40
2023-05-22T00:07:06.585Z,0.40
2023-05-22T00:09:33.334Z,0.40
2023-05-22T00:12:00.408Z,0.40
2023-05-22T00:14:27.124Z,0.40
2023-05-22T00:16:55.444Z,0.40
2023-05-22T00:19:23.154Z,0.30
2023-05-22T00:24:18.146Z,0.35
2023-05-22T00:26:44.802Z,0.40
2023-05-22T00:29:11.545Z,0.40
2023-05-22T00:31:38.292Z,0.40
2023-05-22T00:34:05.052Z,0.40
2023-05-22T00:36:31.810Z,0.40
2023-05-22T00:38:58.597Z,0.40
2023-05-22T00:41:25.997Z,0.30
2023-05-22T00:43:52.787Z,0.40
2023-05-22T00:46:21.526Z,0.40
2023-05-22T00:48:49.113Z,0.40
2023-05-22T00:51:16.057Z,0.40
2023-05-22T00:53:43.433Z,0.38
2023-05-22T00:56:10.499Z,0.30
2023-05-22T00:58:37.595Z,0.37
2023-05-22T01:01:07.689Z,0.40
2023-05-22T01:03:37.433Z,0.40
2023-05-22T01:06:04.600Z,0.40
2023-05-22T01:08:31.381Z,0.40
2023-05-22T01:11:05.067Z,0.40
2023-05-22T01:13:58.311Z,0.40
2023-05-22T01:16:37.331Z,0.40
2023-05-22T01:19:24.054Z,0.40
2023-05-22T01:22:28.487Z,0.40
2023-05-22T01:25:36.501Z,0.40
2023-05-22T01:28:30.542Z,0.40
2023-05-22T01:31:06.521Z,0.45
2023-05-22T01:33:40.880Z,0.40
2023-05-22T01:36:08.605Z,0.40
2023-05-22T01:38:36.273Z,0.40
2023-05-22T01:41:03.348Z,0.50
2023-05-22T01:43:30.684Z,0.40
2023-05-22T01:45:57.518Z,0.40
2023-05-22T01:48:24.458Z,0.50
2023-05-22T01:50:53.753Z,0.30
2023-05-22T01:53:47.668Z,0.50
2023-05-22T01:56:30.877Z,0.40
2023-05-22T01:59:15.081Z,0.40
2023-05-22T02:01:42.859Z,0.50
2023-05-22T02:04:10.685Z,0.43
2023-05-22T02:06:38.715Z,0.50
2023-05-22T02:09:07.200Z,0.47
2023-05-22T02:11:34.700Z,0.50
2023-05-22T02:14:02.216Z,0.40
2023-05-22T02:16:30.347Z,0.45
2023-05-22T02:19:05.980Z,0.50
2023-05-22T02:21:34.214Z,0.40
2023-05-22T02:24:01.475Z,0.40
2023-05-22T02:26:28.776Z,0.50
2023-05-22T02:28:55.682Z,0.40
2023-05-22T02:31:22.665Z,0.50
2023-05-22T02:33:49.455Z,0.40
2023-05-22T02:36:16.384Z,0.43
2023-05-22T02:38:43.133Z,0.40
2023-05-22T02:41:09.906Z,0.50
2023-05-22T02:43:36.634Z,0.47
2023-05-22T02:46:03.495Z,0.50
2023-05-22T02:50:58.061Z,0.50
2023-05-22T02:53:24.898Z,0.40
2023-05-22T02:55:53.215Z,0.50
2023-05-22T02:58:23.190Z,0.50
2023-05-22T03:00:49.959Z,0.50
2023-05-22T03:03:18.157Z,0.40
2023-05-22T03:05:45.989Z,0.50
2023-05-22T03:08:12.780Z,0.50
2023-05-22T03:10:39.585Z,0.40
2023-05-22T03:13:06.572Z,0.50
2023-05-22T03:15:33.324Z,0.40
2023-05-22T03:18:00.085Z,0.40
2023-05-22T03:20:26.902Z,0.40
2023-05-22T03:22:53.721Z,0.50
2023-05-22T03:25:21.919Z,0.50
2023-05-22T03:27:48.733Z,0.35
2023-05-22T03:30:15.712Z,0.40
2023-05-22T03:32:42.549Z,0.50
2023-05-22T03:35:09.826Z,0.40
2023-05-22T03:37:36.511Z,0.40
2023-05-22T03:40:04.828Z,0.40
2023-05-22T03:42:31.523Z,0.40
2023-05-22T03:44:58.271Z,0.60
2023-05-22T03:47:25.016Z,0.47
2023-05-22T03:49:51.823Z,0.40
2023-05-22T03:52:18.562Z,0.50
2023-05-22T03:54:45.416Z,0.40
2023-05-22T03:57:12.097Z,0.50
2023-05-22T03:59:38.816Z,0.43
2023-05-22T04:02:05.687Z,0.40
2023-05-22T04:04:38.348Z,0.50
2023-05-22T04:07:08.370Z,0.47
2023-05-22T04:09:36.517Z,0.50
2023-05-22T04:12:03.702Z,0.50
2023-05-22T04:14:30.522Z,0.40
2023-05-22T04:16:57.304Z,0.40
2023-05-22T04:19:24.044Z,0.40
2023-05-22T04:21:51.120Z,0.40
2023-05-22T04:24:18.334Z,0.45
2023-05-22T04:26:45.090Z,0.50
2023-05-22T04:29:14.483Z,0.30
2023-05-22T04:31:42.095Z,0.45
2023-05-22T04:34:12.925Z,0.40
2023-05-22T04:36:39.660Z,0.40
2023-05-22T04:39:06.861Z,0.40
2023-05-22T04:41:34.373Z,0.40
2023-05-22T04:44:06.434Z,0.47
2023-05-22T04:46:34.560Z,0.40
2023-05-22T04:49:02.089Z,0.50
2023-05-22T04:51:30.468Z,0.40
2023-05-22T04:53:58.402Z,0.40
2023-05-22T04:56:35.353Z,0.40
2023-05-22T04:59:04.611Z,0.40
2023-05-22T05:01:33.248Z,0.30
2023-05-22T05:04:00.708Z,0.40
2023-05-22T05:06:27.690Z,0.40
2023-05-22T05:08:55.064Z,0.40
2023-05-22T05:11:21.752Z,0.30
2023-05-22T05:13:48.518Z,0.40
2023-05-22T05:16:16.242Z,0.30
2023-05-22T05:18:43.469Z,0.40
2023-05-22T05:21:10.494Z,0.30
2023-05-22T05:23:37.223Z,0.30
2023-05-22T05:26:04.052Z,0.40
2023-05-22T05:28:30.873Z,0.40
2023-05-22T05:30:57.974Z,0.30
2023-05-22T05:33:24.865Z,0.40
2023-05-22T05:35:52.826Z,0.40
2023-05-22T05:40:47.145Z,0.30
2023-05-22T05:43:16.647Z,0.40
2023-05-22T05:45:43.889Z,0.30
2023-05-22T05:48:12.047Z,0.30
2023-05-22T05:50:39.404Z,0.30
2023-05-22T05:53:07.196Z,0.30
2023-05-22T05:55:34.708Z,0.30
2023-05-22T05:58:01.599Z,0.30
2023-05-22T06:00:28.454Z,0.30
2023-05-22T06:02:56.078Z,0.40
2023-05-22T06:05:23.368Z,0.30
2023-05-22T06:07:50.351Z,0.40
2023-05-22T06:10:17.100Z,0.40
2023-05-22T06:12:43.995Z,0.30
2023-05-22T06:15:13.176Z,0.25
2023-05-22T06:17:40.148Z,0.30
2023-05-22T06:20:08.236Z,0.30
2023-05-22T06:22:34.977Z,0.30
2023-05-22T06:25:02.187Z,0.40
2023-05-22T06:27:29.013Z,0.30
2023-05-22T06:29:56.648Z,0.30
2023-05-22T06:32:23.456Z,0.30
2023-05-22T06:34:50.283Z,0.30
2023-05-22T06:37:17.184Z,0.22
2023-05-22T06:39:43.946Z,0.30
2023-05-22T06:42:10.756Z,0.30
2023-05-22T06:44:37.533Z,0.30
2023-05-22T06:47:04.297Z,0.30
2023-05-22T06:49:31.185Z,0.30
2023-05-22T06:51:57.981Z,0.30
2023-05-22T06:54:28.474Z,0.30
2023-05-22T06:56:56.981Z,0.30
2023-05-22T06:59:23.883Z,0.30
2023-05-22T07:01:50.688Z,0.30
2023-05-22T07:04:17.545Z,0.30
2023-05-22T07:06:46.218Z,0.30
2023-05-22T07:09:13.869Z,0.30
2023-05-22T07:11:42.814Z,0.30
2023-05-22T07:14:09.917Z,0.30
2023-05-22T07:16:37.311Z,0.30
2023-05-22T07:19:04.116Z,0.30
2023-05-22T07:21:32.326Z,0.30
2023-05-22T07:37:23.237Z,0.30
2023-05-22T07:39:52.573Z,0.30
2023-05-22T07:42:19.341Z,0.30
2023-05-22T07:44:54.472Z,0.30
2023-05-22T07:47:21.651Z,0.30
2023-05-22T07:49:48.745Z,0.30
2023-05-22T07:52:15.676Z,0.30
2023-05-22T07:54:44.254Z,0.30
2023-05-22T07:57:12.595Z,0.30
2023-05-22T07:59:39.358Z,0.40
2023-05-22T08:02:08.382Z,0.30
2023-05-22T08:04:35.571Z,0.30
2023-05-22T08:07:02.568Z,0.30
2023-05-22T08:09:29.276Z,0.40
2023-05-22T08:11:56.120Z,0.30
2023-05-22T08:14:22.950Z,0.30
2023-05-22T08:16:49.749Z,0.30
2023-05-22T08:19:16.723Z,0.30
2023-05-22T08:21:43.563Z,0.30
2023-05-22T08:24:10.469Z,0.30
2023-05-22T08:26:37.531Z,0.40
2023-05-22T08:29:04.314Z,0.30
2023-05-22T08:31:31.193Z,0.30
2023-05-22T08:34:02.612Z,0.30
2023-05-22T08:36:34.070Z,0.30
2023-05-22T08:39:01.557Z,0.30
2023-05-22T08:41:29.302Z,0.30
2023-05-22T08:46:28.349Z,0.30
2023-05-22T08:48:57.560Z,0.30
2023-05-22T08:51:29.322Z,0.30
2023-05-22T08:53:57.483Z,0.30
2023-05-22T08:56:25.979Z,0.30
2023-05-22T08:58:54.548Z,0.20
2023-05-22T09:03:52.204Z,0.30
2023-05-22T09:06:18.990Z,0.30
2023-05-22T09:08:46.121Z,0.30
2023-05-22T09:11:13.258Z,0.30
2023-05-22T09:13:41.463Z,0.30
2023-05-22T09:16:10.831Z,0.25
2023-05-22T09:18:39.155Z,0.30
2023-05-22T09:21:21.502Z,0.30
2023-05-22T09:23:54.884Z,0.30
2023-05-22T09:26:22.367Z,0.30
2023-05-22T09:28:49.284Z,0.20
2023-05-22T09:31:16.514Z,0.30
2023-05-22T09:33:45.144Z,0.30
2023-05-22T09:36:12.586Z,0.30
2023-05-22T09:38:40.004Z,0.30
2023-05-22T09:41:06.879Z,0.30
2023-05-22T09:43:33.931Z,0.30
2023-05-22T09:46:02.087Z,0.30
2023-05-22T09:48:29.209Z,0.30
2023-05-22T09:50:59.840Z,0.30
2023-05-22T09:53:28.951Z,0.30
2023-05-22T09:56:00.462Z,0.28
2023-05-22T09:58:34.818Z,0.30
2023-05-22T10:01:02.405Z,0.30
2023-05-22T10:03:36.295Z,0.22
2023-05-22T10:06:04.233Z,0.30
2023-05-22T10:08:38.770Z,0.30
2023-05-22T10:11:06.487Z,0.30
2023-05-22T10:16:04.618Z,0.30
2023-05-22T10:18:31.793Z,0.20
2023-05-22T10:21:00.682Z,0.25
2023-05-22T10:23:28.677Z,0.30
2023-05-22T10:25:55.903Z,0.30
2023-05-22T10:28:29.480Z,0.30
2023-05-22T10:31:09.290Z,0.30
2023-05-22T10:33:51.388Z,0.30
2023-05-22T10:36:35.720Z,0.30
2023-05-22T10:39:34.566Z,0.30
2023-05-22T10:42:01.948Z,0.22
2023-05-22T10:44:28.729Z,0.20
2023-05-22T10:46:55.544Z,0.20
2023-05-22T10:49:26.728Z,0.30
2023-05-22T10:51:57.151Z,0.20
2023-05-22T10:54:43.644Z,0.30
2023-05-22T10:57:14.972Z,0.20
2023-05-22T10:59:42.808Z,0.20
2023-05-22T11:02:31.227Z,0.30
2023-05-22T11:07:44.895Z,0.20
2023-05-22T11:10:11.713Z,0.20
2023-05-22T11:12:38.442Z,0.20
2023-05-22T11:15:11.818Z,0.20
2023-05-22T11:17:45.145Z,0.20
2023-05-22T11:20:27.699Z,0.25
2023-05-22T11:23:05.361Z,0.20
2023-05-22T11:25:33.917Z,0.30
2023-05-22T11:28:03.269Z,0.20
2023-05-22T11:30:32.885Z,0.20
2023-05-22T11:33:01.140Z,0.20
2023-05-22T11:35:30.087Z,0.20
2023-05-22T11:37:57.645Z,0.20
2023-05-22T11:40:27.501Z,0.20
2023-05-22T11:42:54.624Z,0.20
2023-05-22T11:45:22.048Z,0.20
2023-05-22T11:47:49.756Z,0.20
2023-05-22T11:50:22.687Z,0.20
2023-05-22T11:52:54.048Z,0.20
2023-05-22T11:55:20.774Z,0.20
2023-05-22T11:57:48.077Z,0.20
2023-05-22T12:02:47.203Z,0.20
2023-05-22T12:05:15.884Z,0.20
2023-05-22T12:07:43.202Z,0.20
2023-05-22T12:10:11.242Z,0.20
2023-05-22T12:12:38.984Z,0.20
2023-05-22T12:15:09.136Z,0.20
2023-05-22T12:17:37.709Z,0.20
2023-05-22T12:20:05.804Z,0.20
2023-05-22T12:22:32.618Z,0.20
2023-05-22T12:24:59.409Z,0.20
2023-05-22T12:27:33.043Z,0.20
2023-05-22T12:30:10.376Z,0.20
2023-05-22T12:32:37.211Z,0.20
2023-05-22T12:35:04.106Z,0.20
2023-05-22T12:37:33.678Z,0.20
2023-05-22T12:40:03.120Z,0.30
2023-05-22T12:42:29.897Z,0.20
2023-05-22T12:44:58.173Z,0.20
2023-05-22T12:47:25.574Z,0.20
2023-05-22T12:49:52.827Z,0.20
2023-05-22T12:54:50.077Z,0.20
2023-05-22T12:57:17.054Z,0.20
2023-05-22T12:59:43.935Z,0.20
2023-05-22T13:02:10.703Z,0.20
2023-05-22T13:04:37.904Z,0.20
2023-05-22T13:09:31.423Z,0.20
2023-05-22T13:11:58.323Z,0.20
2023-05-22T13:14:25.381Z,0.25
2023-05-22T13:16:52.100Z,0.20
2023-05-22T13:19:18.804Z,0.20
2023-05-22T13:21:45.683Z,0.30
2023-05-22T13:24:12.534Z,0.20
2023-05-22T13:26:39.273Z,0.25
2023-05-22T13:29:06.527Z,0.20
2023-05-22T13:31:37.443Z,0.20
2023-05-22T13:34:04.946Z,0.20
2023-05-22T13:36:32.175Z,0.20
2023-05-22T13:38:59.028Z,0.20
2023-05-22T13:41:25.931Z,0.25
2023-05-22T13:43:52.807Z,0.20
2023-05-22T13:46:21.634Z,0.20
2023-05-22T13:48:51.972Z,0.20
2023-05-22T13:51:18.862Z,0.20
2023-05-22T13:53:45.960Z,0.20
2023-05-22T13:56:12.766Z,0.20
2023-05-22T13:58:39.531Z,0.20
2023-05-22T14:01:06.315Z,0.20
2023-05-22T14:03:33.899Z,0.20
2023-05-22T14:06:01.002Z,0.20
2023-05-22T14:08:27.735Z,0.20
2023-05-22T14:10:54.668Z,0.20
2023-05-22T14:13:21.446Z,0.30
2023-05-22T14:15:48.440Z,0.20
2023-05-22T14:18:16.625Z,0.30
2023-05-22T14:20:44.631Z,0.30
2023-05-22T14:23:12.764Z,0.20
2023-05-22T14:25:43.145Z,0.20
2023-05-22T14:28:13.915Z,0.20
2023-05-22T14:30:41.370Z,0.30
2023-05-22T14:33:08.287Z,0.30
2023-05-22T14:35:35.521Z,0.20
2023-05-22T14:38:02.737Z,0.30
2023-05-22T14:40:31.866Z,0.30
2023-05-22T14:42:58.673Z,0.30
2023-05-22T14:45:28.424Z,0.30
2023-05-22T14:47:55.467Z,0.30
2023-05-22T14:50:33.403Z,0.30
2023-05-22T14:53:00.387Z,0.30
2023-05-22T14:55:28.209Z,0.40
2023-05-22T14:57:55.735Z,0.30
2023-05-22T15:00:23.125Z,0.30
2023-05-22T15:02:50.178Z,0.40
2023-05-22T15:05:17.181Z,0.40
2023-05-22T15:07:51.735Z,0.37
2023-05-22T15:10:21.948Z,0.30
2023-05-22T15:12:48.863Z,0.40
2023-05-22T15:15:16.053Z,0.40
2023-05-22T15:20:24.200Z,0.40
2023-05-22T15:22:51.159Z,0.40
2023-05-22T15:33:16.790Z,0.40
2023-05-22T15:35:46.601Z,0.50
2023-05-22T15:38:14.055Z,0.50
2023-05-22T15:40:41.813Z,0.40
2023-05-22T15:45:38.474Z,0.40
2023-05-22T15:48:06.960Z,0.40
2023-05-22T15:50:34.443Z,0.40
2023-05-22T15:53:02.193Z,0.50
2023-05-22T15:55:28.954Z,0.50
2023-05-22T15:57:57.781Z,0.40
2023-05-22T16:00:24.473Z,1.25
2023-05-22T16:02:51.318Z,0.50
2023-05-22T16:05:18.404Z,0.40
2023-05-22T16:07:48.316Z,0.50
2023-05-22T16:10:15.146Z,0.40
2023-05-22T16:12:42.058Z,0.50
2023-05-22T16:15:09.544Z,0.50
2023-05-22T16:17:36.472Z,0.40
2023-05-22T16:20:05.139Z,0.50
2023-05-22T16:22:44.267Z,0.50
2023-05-22T16:25:18.396Z,0.40
2023-05-22T16:27:45.640Z,0.50
2023-05-22T16:30:19.448Z,0.40
2023-05-22T16:32:47.553Z,0.50
2023-05-22T16:35:15.836Z,0.50
2023-05-22T16:37:42.756Z,0.43
2023-05-22T16:40:09.874Z,0.50
2023-05-22T16:42:38.197Z,0.40
2023-05-22T16:45:06.240Z,0.40
2023-05-22T16:47:33.242Z,0.40
2023-05-22T16:50:00.661Z,0.50
2023-05-22T16:52:28.131Z,0.40
2023-05-22T16:54:55.116Z,0.40
2023-05-22T16:57:22.039Z,0.40
2023-05-22T16:59:49.097Z,0.40
2023-05-22T17:02:16.103Z,0.40
2023-05-22T17:04:44.264Z,0.40
2023-05-22T17:07:11.133Z,0.40
2023-05-22T17:09:39.348Z,0.40
2023-05-22T17:12:06.498Z,0.40
2023-05-22T17:14:34.403Z,0.40
2023-05-22T17:19:29.003Z,0.40
2023-05-22T17:21:56.946Z,0.40
2023-05-22T17:26:50.848Z,0.40
2023-05-22T17:29:17.751Z,0.40
2023-05-22T17:31:44.650Z,0.40
2023-05-22T17:34:11.598Z,0.40
2023-05-22T17:36:38.466Z,0.40
2023-05-22T17:39:05.443Z,0.40
2023-05-22T17:41:32.499Z,0.40
2023-05-22T17:44:01.720Z,0.43
2023-05-22T17:46:28.673Z,0.40
2023-05-22T17:48:55.604Z,0.40
2023-05-22T17:51:22.705Z,0.40
2023-05-22T17:53:50.203Z,0.40
2023-05-22T17:56:17.364Z,0.40
2023-05-22T17:58:44.244Z,0.50
2023-05-22T18:01:11.413Z,0.50
2023-05-22T18:03:38.438Z,0.40
2023-05-22T18:06:05.796Z,0.40
2023-05-22T18:08:32.689Z,0.40
2023-05-22T18:10:59.635Z,0.40
2023-05-22T18:13:26.587Z,0.50
2023-05-22T18:15:53.917Z,0.40
2023-05-22T18:18:22.632Z,0.40
2023-05-22T18:20:50.546Z,0.30
2023-05-22T18:25:44.354Z,0.40
2023-05-22T18:28:11.519Z,0.40
2023-05-22T18:30:38.588Z,0.40
2023-05-22T18:33:08.251Z,0.35
2023-05-22T18:35:35.146Z,0.47
2023-05-22T18:38:02.045Z,0.40
2023-05-22T18:40:29.087Z,0.40
2023-05-22T18:42:55.922Z,0.40
2023-05-22T18:45:22.953Z,0.40
2023-05-22T18:47:49.973Z,0.40
2023-05-22T18:50:16.961Z,0.40
2023-05-22T18:52:43.845Z,0.40
2023-05-22T18:55:11.294Z,0.30
2023-05-22T18:57:38.302Z,0.35
2023-05-22T19:00:05.867Z,0.40
2023-05-22T19:02:32.889Z,0.40
2023-05-22T19:04:59.854Z,0.30
2023-05-22T19:07:26.863Z,0.40
2023-05-22T19:09:53.753Z,0.40
2023-05-22T19:12:20.681Z,0.40
2023-05-22T19:14:48.471Z,0.40
2023-05-22T19:19:43.020Z,0.32
2023-05-22T19:22:10.326Z,0.40
2023-05-22T19:24:37.166Z,0.40
2023-05-22T19:27:04.646Z,0.30
2023-05-22T19:29:31.548Z,0.40
2023-05-22T19:31:58.465Z,0.40
2023-05-22T19:34:25.320Z,0.40
2023-05-22T19:36:52.224Z,0.40
2023-05-22T19:39:19.156Z,0.40
2023-05-22T19:41:47.459Z,0.40
2023-05-22T19:44:14.319Z,0.40
2023-05-22T19:46:41.289Z,0.40
2023-05-22T19:49:08.263Z,0.40
2023-05-22T19:51:36.787Z,0.40
2023-05-22T19:54:04.253Z,0.30
2023-05-22T19:56:31.646Z,0.40
2023-05-22T19:58:58.467Z,0.40
2023-05-22T20:01:25.499Z,0.40
2023-05-22T20:03:52.848Z,0.40
2023-05-22T20:06:19.817Z,0.40
2023-05-22T20:08:46.653Z,0.40
2023-05-22T20:11:13.733Z,0.35
2023-05-22T20:13:40.546Z,0.40
2023-05-22T20:16:11.959Z,0.40
2023-05-22T20:18:41.045Z,0.40
2023-05-22T20:21:08.458Z,0.32
2023-05-22T20:23:35.535Z,0.50
2023-05-22T20:26:03.635Z,0.40
2023-05-22T20:28:30.829Z,0.40
2023-05-22T20:30:57.750Z,0.40
2023-05-22T20:33:24.645Z,0.40
2023-05-22T20:35:55.166Z,0.40
2023-05-22T20:38:22.615Z,0.40
2023-05-22T20:40:49.752Z,0.40
2023-05-22T20:43:18.609Z,0.40
2023-05-22T20:45:46.749Z,0.40
2023-05-22T20:48:13.938Z,0.40
2023-05-22T20:50:42.120Z,0.40
2023-05-22T20:53:09.132Z,0.40
2023-05-22T20:55:36.283Z,0.40
2023-05-22T20:58:03.271Z,0.40
2023-05-22T21:00:30.340Z,0.40
2023-05-22T21:02:58.573Z,0.40
2023-05-22T21:05:26.356Z,0.30
2023-05-22T21:07:53.279Z,0.40
2023-05-22T21:10:20.294Z,0.40
2023-05-22T21:12:47.202Z,0.40
2023-05-22T21:15:14.238Z,0.32
2023-05-22T21:17:41.193Z,0.40
2023-05-22T21:20:09.243Z,0.40
2023-05-22T21:22:36.163Z,0.40
2023-05-22T21:25:03.778Z,0.40
2023-05-22T21:27:30.616Z,0.40
2023-05-22T21:29:57.527Z,0.30
2023-05-22T21:32:24.461Z,0.43
2023-05-22T21:34:51.356Z,0.40
2023-05-22T21:37:18.341Z,0.40
2023-05-22T21:39:45.282Z,0.30
2023-05-22T21:42:12.391Z,0.40
2023-05-22T21:44:39.577Z,0.40
2023-05-22T21:47:06.516Z,0.40
2023-05-22T21:49:33.615Z,0.40
2023-05-22T21:52:00.597Z,0.30
2023-05-22T21:54:27.673Z,0.25
2023-05-22T21:56:54.611Z,0.40
2023-05-22T21:59:21.635Z,0.40
2023-05-22T22:01:48.682Z,0.30
2023-05-22T22:04:15.778Z,0.40
2023-05-22T22:06:42.714Z,0.40
2023-05-22T22:09:09.900Z,0.40
2023-05-22T22:11:36.869Z,0.40
2023-05-22T22:14:04.129Z,0.40
2023-05-22T22:16:35.603Z,0.30
2023-05-22T22:19:04.559Z,0.40
2023-05-22T22:21:33.454Z,0.30
2023-05-22T22:24:00.275Z,0.32
2023-05-22T22:26:30.749Z,0.30
2023-05-22T22:28:57.781Z,0.30
2023-05-22T22:31:25.127Z,0.30
2023-05-22T22:33:52.108Z,0.40
2023-05-22T22:36:19.004Z,0.32
2023-05-22T22:38:46.040Z,0.40
2023-05-22T22:41:12.873Z,0.30
2023-05-22T22:43:39.788Z,0.30
2023-05-22T22:46:06.829Z,0.40
2023-05-22T22:48:33.863Z,0.40
2023-05-22T22:51:00.756Z,0.40
2023-05-22T22:53:27.733Z,0.40
2023-05-22T22:55:56.768Z,0.30
2023-05-22T22:58:23.897Z,0.30
2023-05-22T23:00:50.904Z,0.30
2023-05-22T23:03:17.880Z,0.40
2023-05-22T23:05:45.016Z,0.40
2023-05-22T23:08:12.612Z,0.30
2023-05-22T23:10:39.498Z,0.35
2023-05-22T23:13:06.670Z,0.40
2023-05-22T23:15:34.204Z,0.40
2023-05-22T23:18:01.415Z,0.40
2023-05-22T23:20:28.430Z,0.40
2023-05-22T23:22:55.480Z,0.30
2023-05-22T23:25:22.354Z,0.40
2023-05-22T23:27:49.306Z,0.40
2023-05-22T23:30:16.403Z,0.40
2023-05-22T23:32:43.407Z,0.30
2023-05-22T23:35:11.249Z,0.30
2023-05-22T23:37:38.261Z,0.40
2023-05-22T23:40:06.853Z,0.40
2023-05-22T23:42:35.656Z,0.40
2023-05-22T23:45:06.124Z,0.38
2023-05-22T23:47:33.001Z,0.40
2023-05-22T23:50:00.389Z,0.30
2023-05-22T23:52:27.670Z,0.40
2023-05-22T23:54:54.645Z,0.30
2023-05-22T23:57:21.620Z,0.40
2023-05-22T23:59:48.563Z,0.40
